Startpagina
METAR-TAF:

METAR-TAF

Vliegvelden :

Nassau, Bahama's

Lynden Pindling International Airport

breedte: 25-03N, lengte: 077-28W, hoogte: 3 m

Actueel weer

Dit bericht is 28 minuten geleden gemaakt, om 12:00 UTC
Wind 6 kt uit het zuiden
Temperatuur 31°C
Vochtigheid 66%
Druk 1014 hPa
Zicht 10 km of meer
Verspreide wolken op 1800 ft
Verspreide wolken op 10000 ft

METAR: MYNN 251200Z 17006KT 9999 SCT018 SCT100 31/24 A2994

Tijdstip: 08:28 (12:28 UTC)

Verwachting

Dit bericht is 1 uur en het 43 minuten geleden gemaakt, om 10:45 UTC
Verwachting geldig van 25 om 12 UTC tot 26 om 12 UTC
Wind 8 kt uit het zuidzuidoosten
Zicht 10 km of meer
Verspreide wolken op 2000 ft
Verspreide wolken op 25000 ft
Kans 30% :
Tijdelijke
van 25 om 18 UTC tot 25 om 24 UTC
Wind 16 kt uit het zuidzuidwesten
Zicht: 8000 m
Weinig wolken op 1400 ft, Cumulonimbus.
Gebroken wolken op 1600 ft
regenbuien

TAF: MYNN 251045Z 2512/2612 16008KT 9999 SCT020 SCT250 PROB30 TEMPO 2518/2524 20016KT 8000 SHRA FEW014CB BKN016

Waarnemingen en weersverwachtingen van meer dan 4000 vliegvelden (METAR en TAF).

De beschikbare stations zijn de gele en rode punten op de kaart.

Ga met uw muis naar het station om de naam te zien.

Klik dan om waarnemingen en weersverwachtingen te zien.

kaart wijzigen: klik op de groene knoppen met een zwart kruis om in te zoomen, op de groene knop met een streepje om uit te zoomen of op de groene pijlen voor aangrenzende kaarten.


METAR-TAF: